Time;durP1;ratioP1;P1;durP2;ratioP2;P2;SDS_P1;SDS_P2;PMS_P1;PMS_P2;Temp;Humidity;BMP_temperature;BMP_pressure;BME280_temperature;BME280_humidity;BME280_pressure;Samples;Min_cycle;Max_cycle;Signal;HPM_P1;HPM_P2
2021/07/30 00:01:52;;;;;;;4.07;3.77;;;;;;;;;;5072139;28;20457;-92
2021/07/30 00:04:19;;;;;;;3.60;3.30;;;;;;;;;;5071669;28;20497;-91
2021/07/30 00:06:46;;;;;;;4.20;3.47;;;;;;;;;;5067894;28;20459;-93
2021/07/30 00:09:13;;;;;;;5.00;3.57;;;;;;;;;;5064413;28;20461;-94
2021/07/30 00:11:40;;;;;;;9.93;3.90;;;;;;;;;;5058891;28;20458;-94
2021/07/30 00:14:07;;;;;;;4.03;3.23;;;;;;;;;;5058693;28;20455;-94
2021/07/30 00:16:35;;;;;;;4.80;3.30;;;13.30;99.90;;;;;;5070772;28;20447;-95
2021/07/30 00:19:03;;;;;;;5.63;4.03;;;13.20;99.90;;;;;;5056685;28;20450;-94
2021/07/30 00:21:30;;;;;;;3.67;3.33;;;;;;;;;;5060581;28;20431;-91
2021/07/30 00:23:57;;;;;;;3.83;3.43;;;;;;;;;;5062169;28;20484;-94
2021/07/30 00:26:24;;;;;;;3.90;3.40;;;;;;;;;;5067939;28;20454;-94
2021/07/30 00:28:51;;;;;;;5.67;3.33;;;;;;;;;;5058869;28;20469;-94
2021/07/30 00:31:18;;;;;;;4.50;3.30;;;;;;;;;;5071760;28;20521;-91
2021/07/30 00:33:46;;;;;;;4.17;3.77;;;13.00;99.90;;;;;;5061074;28;20469;-94
2021/07/30 00:36:14;;;;;;;4.60;3.70;;;;;;;;;;5065341;28;20442;-95
2021/07/30 00:38:42;;;;;;;4.47;3.40;;;;;;;;;;5058926;28;20532;-94
2021/07/30 00:41:09;;;;;;;5.77;3.30;;;;;;;;;;5058120;28;20475;-92
2021/07/30 00:43:37;;;;;;;4.27;3.87;;;;;;;;;;5053971;28;20898;-93
2021/07/30 00:46:04;;;;;;;4.43;3.90;;;;;;;;;;5057589;28;20461;-95
2021/07/30 00:48:31;;;;;;;3.83;3.43;;;12.90;99.90;;;;;;5057300;28;20438;-94
2021/07/30 00:51:00;;;;;;;3.63;3.33;;;12.80;99.90;;;;;;5050988;28;20466;-93
2021/07/30 00:53:27;;;;;;;4.63;3.47;;;;;;;;;;5054016;28;20481;-93
2021/07/30 00:55:57;;;;;;;3.93;3.30;;;12.80;99.90;;;;;;5055134;28;20500;-93
2021/07/30 00:58:25;;;;;;;4.17;3.77;;;;;;;;;;5057258;28;20455;-93
2021/07/30 01:00:52;;;;;;;3.83;3.53;;;;;;;;;;5056965;28;20434;-94
2021/07/30 01:03:19;;;;;;;4.70;3.30;;;;;;;;;;5056491;28;20482;-93
2021/07/30 01:05:47;;;;;;;3.40;3.10;;;12.70;99.90;;;;;;5056593;28;20945;-94
2021/07/30 01:08:15;;;;;;;5.83;2.90;;;12.60;99.90;;;;;;5056668;28;20443;-91
2021/07/30 01:10:43;;;;;;;4.13;3.70;;;;;;;;;;5060497;28;20450;-94
2021/07/30 01:13:10;;;;;;;4.20;3.40;;;;;;;;;;5063146;28;20443;-94
2021/07/30 01:15:37;;;;;;;3.37;3.07;;;;;;;;;;5054800;28;20439;-95
2021/07/30 01:18:04;;;;;;;4.30;3.17;;;;;;;;;;5057410;28;20431;-92
2021/07/30 01:20:31;;;;;;;3.80;3.40;;;;;;;;;;5057118;28;20427;-95
2021/07/30 01:23:00;;;;;;;4.27;3.53;;;12.50;99.90;;;;;;5057539;28;20427;-94
2021/07/30 01:25:29;;;;;;;4.00;3.60;;;12.50;99.90;;;;;;5054713;28;20459;-91
2021/07/30 01:27:56;;;;;;;5.47;3.33;;;;;;;;;;5055029;28;20427;-93
2021/07/30 01:30:26;;;;;;;4.17;3.50;;;12.40;99.90;;;;;;5061603;28;20948;-93
2021/07/30 01:32:53;;;;;;;5.70;3.93;;;;;;;;;;5056647;28;20466;-94
2021/07/30 01:35:20;;;;;;;5.37;3.60;;;;;;;;;;5061234;28;20454;-92
2021/07/30 01:37:47;;;;;;;3.20;2.90;;;;;;;;;;5059573;28;20446;-91
2021/07/30 01:40:21;;;;;;;4.20;3.30;;;;;;;;;;5058635;28;20455;-93
2021/07/30 01:42:48;;;;;;;3.70;3.30;;;;;;;;;;5056499;28;21039;-93
2021/07/30 01:45:15;;;;;;;5.53;3.57;;;;;;;;;;5052182;28;20481;-94
2021/07/30 01:47:42;;;;;;;5.20;3.53;;;;;;;;;;5055922;28;20458;-93
2021/07/30 01:50:10;;;;;;;3.43;3.13;;;;;;;;;;5055135;28;20458;-93
2021/07/30 01:52:37;;;;;;;4.10;3.43;;;;;;;;;;5055793;28;20910;-93
2021/07/30 01:55:04;;;;;;;3.20;2.73;;;;;;;;;;5054629;28;20482;-93
2021/07/30 01:57:33;;;;;;;5.20;3.20;;;;;;;;;;5057004;28;20428;-94
2021/07/30 02:00:00;;;;;;;5.33;3.60;;;;;;;;;;5053480;28;20454;-93
2021/07/30 02:02:32;;;;;;;5.13;3.30;;;;;;;;;;5048624;28;20481;-94
2021/07/30 02:04:59;;;;;;;3.23;3.03;;;;;;;;;;5052949;28;20491;-92
2021/07/30 02:07:26;;;;;;;5.43;2.90;;;;;;;;;;5047673;28;20462;-93
2021/07/30 02:09:53;;;;;;;4.03;3.57;;;;;;;;;;5055885;28;20454;-93
2021/07/30 02:12:20;;;;;;;4.17;3.77;;;;;;;;;;5053394;28;20458;-96
2021/07/30 02:14:48;;;;;;;4.37;3.43;;;;;;;;;;5052321;28;20435;-94
2021/07/30 02:17:15;;;;;;;3.90;3.30;;;;;;;;;;5053441;28;20451;-94
2021/07/30 02:19:42;;;;;;;3.63;3.30;;;;;;;;;;5054416;28;20457;-94
2021/07/30 02:22:09;;;;;;;6.87;3.57;;;;;;;;;;5054961;28;20461;-93
2021/07/30 02:24:36;;;;;;;4.00;3.50;;;;;;;;;;5054344;28;20486;-95
2021/07/30 02:27:04;;;;;;;5.87;3.53;;;;;;;;;;5055192;28;20431;-94
2021/07/30 02:29:31;;;;;;;5.10;3.60;;;;;;;;;;5055109;28;20918;-93
2021/07/30 02:31:59;;;;;;;4.10;3.70;;;11.90;99.90;;;;;;5053200;28;20451;-92
2021/07/30 02:34:26;;;;;;;5.40;4.20;;;;;;;;;;5054960;28;20426;-94
2021/07/30 02:36:53;;;;;;;4.53;3.57;;;;;;;;;;5051094;28;20427;-93
2021/07/30 02:39:20;;;;;;;3.90;3.50;;;;;;;;;;5055018;28;20454;-95
2021/07/30 02:41:47;;;;;;;5.03;3.63;;;;;;;;;;5055105;28;20489;-93
2021/07/30 02:44:14;;;;;;;4.93;3.90;;;;;;;;;;5052202;28;20518;-93
2021/07/30 02:46:42;;;;;;;7.17;3.23;;;;;;;;;;5054702;28;20445;-92
2021/07/30 02:49:10;;;;;;;4.70;3.13;;;;;;;;;;5052941;28;20431;-92
2021/07/30 02:51:37;;;;;;;4.60;3.60;;;;;;;;;;5055638;28;20907;-91
2021/07/30 02:54:04;;;;;;;4.00;3.60;;;;;;;;;;5055846;28;20490;-91
2021/07/30 02:56:31;;;;;;;3.80;3.50;;;;;;;;;;5052717;28;20450;-93
2021/07/30 02:58:58;;;;;;;4.00;3.60;;;;;;;;;;5054941;28;20450;-93
2021/07/30 03:01:25;;;;;;;5.00;3.67;;;;;;;;;;5052668;28;20455;-94
2021/07/30 03:03:52;;;;;;;3.67;3.37;;;;;;;;;;5054608;28;20466;-92
2021/07/30 03:06:21;;;;;;;4.97;3.60;;;;;;;;;;5053861;28;20447;-94
2021/07/30 03:08:48;;;;;;;5.67;4.00;;;;;;;;;;5046896;28;20446;-92
2021/07/30 03:11:15;;;;;;;3.90;3.60;;;;;;;;;;5051650;28;20458;-92
2021/07/30 03:13:42;;;;;;;3.70;3.40;;;;;;;;;;5054885;28;20435;-92
2021/07/30 03:16:11;;;;;;;5.17;3.83;;;;;;;;;;5052769;28;20458;-93
2021/07/30 03:18:39;;;;;;;4.77;3.90;;;;;;;;;;5054603;28;20492;-92
2021/07/30 03:21:06;;;;;;;6.40;4.30;;;;;;;;;;5054038;28;20450;-92
2021/07/30 03:23:34;;;;;;;5.03;3.90;;;11.60;99.90;;;;;;5052836;28;20466;-93
2021/07/30 03:26:01;;;;;;;6.30;3.83;;;;;;;;;;5054544;28;20439;-93
2021/07/30 03:28:28;;;;;;;5.00;3.97;;;;;;;;;;5050341;28;20435;-93
2021/07/30 03:30:59;;;;;;;6.40;4.07;;;11.60;99.90;;;;;;5050962;28;20454;-93
2021/07/30 03:33:26;;;;;;;4.97;4.47;;;;;;;;;;5051790;28;20524;-93
2021/07/30 03:35:53;;;;;;;4.70;4.20;;;;;;;;;;5051818;28;20933;-94
2021/07/30 03:38:20;;;;;;;5.53;3.97;;;;;;;;;;5056473;28;20462;-91
2021/07/30 03:40:49;;;;;;;5.33;3.93;;;;;;;;;;5058354;28;20977;-92
2021/07/30 03:43:16;;;;;;;5.97;3.83;;;;;;;;;;5058317;28;20447;-92
2021/07/30 03:45:43;;;;;;;5.23;3.60;;;;;;;;;;5057955;28;20478;-93
2021/07/30 03:48:12;;;;;;;8.67;4.20;;;;;;;;;;5056690;28;20473;-91
2021/07/30 03:50:40;;;;;;;5.37;4.00;;;;;;;;;;5055938;28;20454;-93
2021/07/30 03:53:07;;;;;;;6.10;3.67;;;;;;;;;;5054398;28;20447;-94
2021/07/30 03:55:34;;;;;;;4.63;3.70;;;;;;;;;;5053978;28;20434;-95
2021/07/30 03:58:02;;;;;;;5.97;4.70;;;11.50;99.90;;;;;;5057640;28;20427;-94
2021/07/30 04:00:30;;;;;;;4.43;4.03;;;;;;;;;;5054687;28;20492;-93
2021/07/30 04:02:57;;;;;;;4.60;3.80;;;;;;;;;;5057670;28;20449;-94
2021/07/30 04:05:24;;;;;;;6.03;4.50;;;;;;;;;;5054544;28;20909;-92
2021/07/30 04:07:51;;;;;;;5.03;4.50;;;;;;;;;;5052158;28;20459;-90
2021/07/30 04:10:18;;;;;;;4.43;4.03;;;;;;;;;;5057466;28;20451;-93
2021/07/30 04:12:45;;;;;;;7.60;4.40;;;;;;;;;;5055891;28;20458;-91
2021/07/30 04:15:13;;;;;;;10.30;4.37;;;11.70;99.90;;;;;;5057422;28;20496;-93
2021/07/30 04:17:42;;;;;;;6.80;4.97;;;;;;;;;;5049134;28;21007;-92
2021/07/30 04:20:10;;;;;;;6.10;4.53;;;11.60;99.90;;;;;;5056694;28;20431;-93
2021/07/30 04:22:37;;;;;;;6.07;4.53;;;;;;;;;;5057539;28;20800;-93
2021/07/30 04:25:05;;;;;;;5.07;4.57;;;;;;;;;;5057023;28;20466;-91
2021/07/30 04:27:32;;;;;;;6.23;5.60;;;;;;;;;;5053306;28;20438;-92
2021/07/30 04:29:59;;;;;;;8.63;4.73;;;;;;;;;;5044242;28;20435;-94
2021/07/30 04:32:27;;;;;;;6.20;4.70;;;;;;;;;;5043480;28;20447;-92
2021/07/30 04:34:54;;;;;;;5.10;4.60;;;;;;;;;;5050815;28;20454;-93
2021/07/30 04:37:23;;;;;;;5.00;4.53;;;11.90;99.90;;;;;;5035265;28;20452;-94
2021/07/30 04:39:50;;;;;;;6.90;4.93;;;;;;;;;;5036870;28;20471;-94
2021/07/30 04:42:18;;;;;;;6.53;4.50;;;12.00;99.90;;;;;;5047366;28;20919;-93
2021/07/30 04:44:45;;;;;;;5.80;4.27;;;;;;;;;;5036986;28;20483;-94
2021/07/30 04:47:13;;;;;;;5.50;4.70;;;;;;;;;;5029947;28;20431;-94
2021/07/30 04:49:43;;;;;;;5.93;4.10;;;12.20;99.90;;;;;;5052871;28;20447;-92
2021/07/30 04:52:11;;;;;;;5.07;4.50;;;;;;;;;;5035809;28;20915;-92
2021/07/30 04:54:41;;;;;;;4.93;4.50;;;;;;;;;;5049662;28;20514;-94
2021/07/30 04:57:09;;;;;;;5.20;4.70;;;12.50;99.90;;;;;;5056959;28;20450;-93
2021/07/30 04:59:36;;;;;;;6.50;5.37;;;;;;;;;;5051143;28;20453;-93
2021/07/30 05:02:03;;;;;;;9.70;5.20;;;;;;;;;;5056537;28;20446;-93
2021/07/30 05:04:30;;;;;;;9.73;5.50;;;;;;;;;;5052833;28;20721;-92
2021/07/30 05:06:59;;;;;;;7.03;5.27;;;;;;;;;;5052574;28;20833;-95
2021/07/30 05:09:26;;;;;;;8.40;5.70;;;;;;;;;;5051131;28;20949;-92
2021/07/30 05:11:53;;;;;;;5.70;4.53;;;;;;;;;;5056916;28;20455;-94
2021/07/30 05:14:20;;;;;;;14.50;6.50;;;;;;;;;;5057752;28;20454;-95
2021/07/30 05:16:47;;;;;;;6.40;5.80;;;;;;;;;;5056950;28;20447;-94
2021/07/30 05:19:14;;;;;;;6.90;5.70;;;;;;;;;;5056663;28;20457;-95
2021/07/30 05:21:42;;;;;;;5.50;5.00;;;;;;;;;;5055810;28;20446;-94
2021/07/30 05:24:10;;;;;;;8.97;5.20;;;;;;;;;;5056497;28;20522;-93
2021/07/30 05:26:37;;;;;;;5.07;4.57;;;;;;;;;;5053390;28;20458;-94
2021/07/30 05:29:07;;;;;;;5.77;4.97;;;14.50;99.90;;;;;;5056429;28;20438;-93
2021/07/30 05:31:35;;;;;;;6.50;4.80;;;;;;;;;;5056139;28;20431;-94
2021/07/30 05:34:02;;;;;;;4.67;4.27;;;;;;;;;;5056005;28;20434;-94
2021/07/30 05:36:29;;;;;;;5.27;4.50;;;;;;;;;;5065318;23;20457;-91
2021/07/30 05:38:56;;;;;;;6.30;4.53;;;;;;;;;;5095078;28;20465;-94
2021/07/30 05:41:24;;;;;;;4.60;4.20;;;15.80;99.90;;;;;;5076049;28;20434;-93
2021/07/30 05:43:51;;;;;;;7.27;4.47;;;;;;;;;;5072714;28;20921;-94
2021/07/30 05:46:19;;;;;;;5.73;4.10;;;;;;;;;;5074668;28;20489;-92
2021/07/30 05:48:47;;;;;;;4.20;3.90;;;;;;;;;;5075623;28;20849;-93
2021/07/30 05:51:14;;;;;;;5.87;4.30;;;17.60;99.90;;;;;;5072192;28;20837;-94
2021/07/30 05:53:42;;;;;;;9.83;4.20;;;;;;;;;;5075910;28;20438;-92
2021/07/30 05:56:09;;;;;;;6.97;4.23;;;;;;;;;;5075887;28;20435;-90
2021/07/30 05:58:37;;;;;;;5.13;4.63;;;18.10;99.90;;;;;;5075143;28;20913;-91
2021/07/30 06:01:04;;;;;;;4.87;3.37;;;;;;;;;;5072321;28;20959;-91
2021/07/30 06:03:32;;;;;;;6.07;4.67;;;;;;;;;;5075683;28;20791;-94
2021/07/30 06:05:59;;;;;;;4.50;4.10;;;;;;;;;;5071656;28;20485;-93
2021/07/30 06:08:26;;;;;;;4.70;4.20;;;;;;;;;;5075530;28;20437;-92
2021/07/30 06:10:53;;;;;;;5.03;4.20;;;;;;;;;;5075524;28;20426;-93
2021/07/30 06:13:20;;;;;;;7.30;4.00;;;;;;;;;;5072165;28;20789;-93
2021/07/30 06:15:48;;;;;;;4.70;4.30;;;18.80;99.90;;;;;;5076871;28;20963;-93
2021/07/30 06:18:15;;;;;;;10.50;4.20;;;;;;;;;;5077193;28;20472;-92
2021/07/30 06:20:45;;;;;;;4.80;4.23;;;;;;;;;;5080590;28;20449;-92
2021/07/30 06:23:12;;;;;;;5.50;3.70;;;;;;;;;;5079477;28;20549;-93
2021/07/30 06:25:39;;;;;;;4.73;4.33;;;;;;;;;;5077771;28;20488;-92
2021/07/30 06:28:07;;;;;;;4.37;3.97;;;;;;;;;;5077873;28;20434;-91
2021/07/30 06:30:34;;;;;;;4.93;3.90;;;;;;;;;;5076290;28;20454;-93
2021/07/30 06:33:09;;;;;;;4.13;3.80;;;20.10;99.90;;;;;;5076400;28;20943;-93
2021/07/30 06:35:36;;;;;;;4.20;3.80;;;;;;;;;;5074118;28;20954;-91
2021/07/30 06:38:03;;;;;;;4.40;4.00;;;;;;;;;;5075145;28;20481;-91
2021/07/30 06:40:30;;;;;;;4.30;3.90;;;;;;;;;;5074884;28;20469;-93
2021/07/30 06:42:58;;;;;;;4.00;3.60;;;;;;;;;;5074683;28;20460;-92
2021/07/30 06:45:26;;;;;;;3.73;3.30;;;;;;;;;;5077430;28;20485;-92
2021/07/30 06:47:53;;;;;;;4.33;3.93;;;;;;;;;;5075420;28;20961;-93
2021/07/30 06:50:21;;;;;;;4.23;3.83;;;;;;;;;;5074330;28;20438;-94
2021/07/30 06:52:49;;;;;;;4.50;4.10;;;;;;;;;;5074011;28;20484;-94
2021/07/30 06:55:16;;;;;;;4.83;4.20;;;;;;;;;;5079297;28;20456;-93
2021/07/30 06:57:43;;;;;;;4.40;3.83;;;;;;;;;;5076959;28;20434;-93
2021/07/30 07:00:11;;;;;;;5.27;3.83;;;20.60;99.90;;;;;;5072921;28;20440;-89
2021/07/30 07:02:39;;;;;;;4.43;4.03;;;;;;;;;;5074392;28;20491;-93
2021/07/30 07:05:07;;;;;;;4.80;4.40;;;21.70;99.90;;;;;;5078369;28;20548;-93
2021/07/30 07:07:36;;;;;;;4.73;4.33;;;;;;;;;;5069135;28;20458;-88
2021/07/30 07:10:03;;;;;;;4.50;4.10;;;;;;;;;;5074135;28;20452;-93
2021/07/30 07:12:30;;;;;;;7.73;4.50;;;;;;;;;;5074397;28;20442;-89
2021/07/30 07:14:57;;;;;;;4.37;4.00;;;;;;;;;;5074050;28;20949;-89
2021/07/30 07:17:24;;;;;;;4.30;3.90;;;;;;;;;;5073810;28;20442;-88
2021/07/30 07:19:51;;;;;;;5.53;3.93;;;;;;;;;;5071957;28;20482;-88
2021/07/30 07:22:18;;;;;;;5.00;4.60;;;;;;;;;;5070606;28;20442;-89
2021/07/30 07:24:46;;;;;;;5.70;4.13;;;23.30;99.90;;;;;;5073681;28;20450;-88
2021/07/30 07:27:13;;;;;;;4.73;4.23;;;;;;;;;;5070168;28;20524;-86
2021/07/30 07:29:40;;;;;;;5.97;4.80;;;;;;;;;;5073198;28;20448;-85
2021/07/30 07:32:08;;;;;;;5.43;4.57;;;;;;;;;;5073051;28;20438;-89
2021/07/30 07:34:35;;;;;;;4.97;4.53;;;;;;;;;;5069215;28;20497;-89
2021/07/30 07:37:02;;;;;;;5.13;4.17;;;;;;;;;;5073467;28;20486;-89
2021/07/30 07:39:30;;;;;;;5.60;4.07;;;;;;;;;;5073541;28;20456;-88
2021/07/30 07:41:59;;;;;;;4.77;4.37;;;22.80;99.90;;;;;;5073998;28;20891;-91
2021/07/30 07:44:26;;;;;;;6.43;4.90;;;;;;;;;;5071555;28;20445;-87
2021/07/30 07:46:55;;;;;;;6.50;4.30;;;;;;;;;;5073563;28;20490;-91
2021/07/30 07:49:22;;;;;;;4.27;3.97;;;;;;;;;;5070383;28;20450;-93
2021/07/30 07:51:49;;;;;;;4.73;4.30;;;;;;;;;;5072466;28;20457;-90
2021/07/30 07:54:16;;;;;;;5.13;4.17;;;;;;;;;;5073063;28;20446;-91
2021/07/30 07:56:43;;;;;;;6.33;4.40;;;;;;;;;;5073098;28;20457;-91
2021/07/30 07:59:11;;;;;;;5.33;4.70;;;25.60;99.90;;;;;;5073328;28;20430;-89
2021/07/30 08:01:38;;;;;;;5.00;4.50;;;;;;;;;;5070712;28;20430;-92
2021/07/30 08:04:06;;;;;;;5.37;4.87;;;;;;;;;;5073358;28;20936;-93
2021/07/30 08:06:33;;;;;;;4.30;3.90;;;;;;;;;;5069939;28;20854;-85
2021/07/30 08:09:00;;;;;;;4.77;4.37;;;;;;;;;;5073499;28;20928;-92
2021/07/30 08:11:27;;;;;;;4.47;4.07;;;;;;;;;;5074012;28;20430;-87
2021/07/30 08:13:54;;;;;;;4.67;4.27;;;;;;;;;;5070226;28;20500;-93
2021/07/30 08:16:26;;;;;;;5.13;4.47;;;;;;;;;;5073297;28;20937;-84
2021/07/30 08:18:53;;;;;;;5.03;4.53;;;;;;;;;;5072988;28;20453;-88
2021/07/30 08:21:21;;;;;;;5.23;4.73;;;;;;;;;;5069373;28;20465;-91
2021/07/30 08:23:48;;;;;;;4.40;4.00;;;;;;;;;;5076120;28;20441;-91
2021/07/30 08:26:15;;;;;;;5.17;4.67;;;;;;;;;;5076744;28;20493;-88
2021/07/30 08:28:42;;;;;;;4.70;4.17;;;;;;;;;;5076167;28;20454;-87
2021/07/30 08:31:09;;;;;;;4.20;3.80;;;;;;;;;;5075871;28;20450;-86
2021/07/30 08:33:38;;;;;;;5.10;4.60;;;24.00;99.90;;;;;;5076116;28;20516;-89
2021/07/30 08:36:07;;;;;;;4.33;3.93;;;23.90;99.90;;;;;;5075269;28;20460;-87
2021/07/30 08:38:35;;;;;;;4.50;4.10;;;;;;;;;;5073390;28;20864;-81
2021/07/30 08:41:02;;;;;;;3.90;3.60;;;;;;;;;;5075613;28;20434;-83
2021/07/30 08:43:29;;;;;;;5.50;4.40;;;;;;;;;;5076277;28;20448;-88
2021/07/30 08:45:57;;;;;;;5.43;4.10;;;;;;;;;;5075625;28;20837;-87
2021/07/30 08:48:24;;;;;;;4.97;4.30;;;;;;;;;;5075919;28;20449;-90
2021/07/30 08:50:54;;;;;;;5.20;4.50;;;24.90;99.90;;;;;;5075006;28;20449;-81
2021/07/30 08:53:24;;;;;;;6.50;4.20;;;24.20;99.90;;;;;;5075382;28;20469;-86
2021/07/30 08:55:51;;;;;;;5.27;4.00;;;;;;;;;;5075797;28;20795;-89
2021/07/30 08:58:18;;;;;;;6.83;4.60;;;;;;;;;;5075971;28;20457;-91
2021/07/30 09:00:45;;;;;;;8.20;4.20;;;;;;;;;;5075848;28;20837;-82
2021/07/30 09:03:13;;;;;;;5.97;4.80;;;;;;;;;;5075444;28;20955;-88
2021/07/30 09:05:40;;;;;;;4.90;4.50;;;;;;;;;;5073057;28;20481;-87
2021/07/30 09:08:09;;;;;;;6.30;4.67;;;25.00;99.90;;;;;;5072723;28;20524;-88
2021/07/30 09:10:39;;;;;;;7.00;4.87;;;25.50;99.80;;;;;;5075822;28;20949;-86
2021/07/30 09:13:24;;;;;;;7.03;4.50;;;24.70;99.90;;;;;;5075720;28;20945;-87
2021/07/30 09:16:02;;;;;;;4.43;4.03;;;25.20;99.90;;;;;;5074648;28;20477;-89
2021/07/30 09:18:37;;;;;;;5.07;4.57;;;24.90;99.90;;;;;;5074432;28;20446;-88
2021/07/30 09:21:26;;;;;;;5.30;4.80;;;24.30;99.90;;;;;;5073351;28;20445;-89
2021/07/30 09:23:57;;;;;;;5.10;4.60;;;25.10;99.90;;;;;;5077911;28;20446;-87
2021/07/30 09:26:36;;;;;;;7.50;5.03;;;25.30;99.90;;;;;;5072274;28;21011;-86
2021/07/30 09:29:05;;;;;;;5.13;4.50;;;25.10;99.90;;;;;;5074951;28;20441;-87
2021/07/30 09:31:50;;;;;;;4.60;4.20;;;24.60;99.90;;;;;;5074881;28;20446;-87
2021/07/30 09:34:23;;;;;;;4.50;4.10;;;24.50;99.90;;;;;;5074433;28;20456;-87
2021/07/30 09:36:58;;;;;;;5.83;4.43;;;24.90;99.90;;;;;;5073389;28;20477;-89
2021/07/30 09:39:28;;;;;;;5.20;4.47;;;24.60;99.90;;;;;;5074504;28;20449;-82
2021/07/30 09:42:07;;;;;;;5.60;5.10;;;24.50;99.90;;;;;;5074474;28;20449;-87
2021/07/30 09:44:34;;;;;;;5.57;5.07;;;24.80;99.90;;;;;;5074582;28;20549;-87
2021/07/30 09:47:13;;;;;;;5.57;4.97;;;25.80;99.90;;;;;;5071484;28;20493;-88
2021/07/30 09:49:45;;;;;;;5.57;5.07;;;26.70;99.60;;;;;;5072036;28;20465;-87
2021/07/30 09:52:14;;;;;;;4.97;4.40;;;26.70;98.90;;;;;;5074540;28;20476;-85
2021/07/30 09:54:46;;;;;;;5.53;5.13;;;26.40;97.90;;;;;;5074205;28;20442;-84
2021/07/30 09:57:14;;;;;;;5.80;5.30;;;26.70;98.30;;;;;;5074440;28;20453;-81
2021/07/30 09:59:42;;;;;;;5.77;5.27;;;26.00;99.30;;;;;;5074391;28;20450;-87
2021/07/30 10:02:14;;;;;;;6.30;5.70;;;26.70;99.10;;;;;;5074276;28;20450;-88
2021/07/30 10:04:44;;;;;;;5.33;4.83;;;26.30;98.70;;;;;;5073226;28;20917;-89
2021/07/30 10:07:15;;;;;;;5.87;5.30;;;26.80;98.40;;;;;;5070044;28;20494;-86
2021/07/30 10:09:49;;;;;;;5.20;4.60;;;26.40;98.30;;;;;;5070914;28;20515;-87
2021/07/30 10:12:17;;;;;;;3.30;3.00;;;25.50;98.50;;;;;;5073950;28;20455;-84
2021/07/30 10:14:45;;;;;;;5.33;4.83;;;25.90;99.50;;;;;;5070590;28;20953;-84
2021/07/30 10:17:16;;;;;;;5.97;5.43;;;26.40;99.90;;;;;;5070816;28;20807;-88
2021/07/30 10:19:45;;;;;;;5.43;5.03;;;26.80;98.00;;;;;;5069203;28;20450;-82
2021/07/30 10:22:14;;;;;;;5.77;5.17;;;25.60;99.30;;;;;;5074202;28;20456;-84
2021/07/30 10:24:49;;;;;;;5.50;5.00;;;25.40;99.90;;;;;;5070632;28;20501;-87
2021/07/30 10:27:18;;;;;;;6.23;5.67;;;25.60;99.90;;;;;;5070521;28;20489;-89
2021/07/30 10:30:05;;;;;;;5.80;5.20;;;26.10;99.90;;;;;;5071386;28;20464;-85
2021/07/30 10:32:52;;;;;;;6.23;5.70;;;25.90;99.90;;;;;;5076826;28;20445;-88
2021/07/30 10:35:40;;;;;;;7.10;5.20;;;26.60;99.80;;;;;;5072869;28;20438;-88
2021/07/30 10:38:21;;;;;;;5.97;5.47;;;27.40;99.70;;;;;;5073824;28;20551;-90
2021/07/30 10:41:19;;;;;;;5.70;5.20;;;27.80;99.90;;;;;;5072868;28;20446;-89
2021/07/30 10:44:09;;;;;;;6.03;5.00;;;;;;;;;;5076067;28;20449;-91
2021/07/30 10:46:37;;;;;;;5.83;5.33;;;;;;;;;;5070065;28;20473;-89
2021/07/30 10:49:37;;;;;;;6.93;5.77;;;26.60;98.80;;;;;;5075461;28;20450;-89
2021/07/30 10:52:25;;;;;;;5.60;5.10;;;28.10;97.30;;;;;;5076611;28;20461;-88
2021/07/30 10:54:52;;;;;;;6.10;5.50;;;;;;;;;;5074212;28;20449;-91
2021/07/30 10:57:55;;;;;;;7.47;5.30;;;27.40;96.70;;;;;;5074420;28;20929;-90
2021/07/30 11:00:23;;;;;;;6.30;5.70;;;;;;;;;;5076622;28;20449;-84
2021/07/30 11:03:14;;;;;;;6.30;5.00;;;26.80;98.10;;;;;;5088557;28;20437;-93
2021/07/30 11:06:09;;;;;;;5.13;4.60;;;26.80;97.90;;;;;;5073025;28;20442;-93
2021/07/30 11:09:12;;;;;;;6.53;4.90;;;27.00;98.00;;;;;;5072712;28;20536;-92
2021/07/30 11:11:40;;;;;;;5.83;5.33;;;27.70;99.20;;;;;;5070217;28;20536;-94
2021/07/30 11:14:11;;;;;;;6.80;6.20;;;27.50;97.00;;;;;;5086886;28;20874;-94
2021/07/30 11:16:38;;;;;;;5.83;5.33;;;;;;;;;;5080041;28;20485;-94
2021/07/30 11:19:06;;;;;;;7.13;6.43;;;;;;;;;;5078045;28;20921;-94
2021/07/30 11:21:48;;;;;;;8.80;5.60;;;27.60;98.10;;;;;;5083502;28;20578;-94
2021/07/30 11:24:15;;;;;;;6.00;5.47;;;;;;;;;;5085385;28;20465;-95
2021/07/30 11:26:51;;;;;;;5.63;5.17;;;;;;;;;;5077853;28;20481;-95
2021/07/30 11:29:21;;;;;;;6.17;5.67;;;27.60;98.70;;;;;;5077963;28;20456;-94
2021/07/30 11:31:52;;;;;;;8.43;6.33;;;;;;;;;;5074241;28;20454;-91
2021/07/30 11:34:19;;;;;;;6.40;5.60;;;;;;;;;;5074816;28;20438;-96
2021/07/30 11:36:50;;;;;;;6.30;5.37;;;;;;;;;;5074831;28;20489;-95
2021/07/30 11:39:17;;;;;;;5.40;4.90;;;;;;;;;;5073355;28;20987;-91
2021/07/30 11:41:48;;;;;;;5.03;4.63;;;;;;;;;;5055722;28;20443;-92
2021/07/30 11:44:16;;;;;;;6.30;5.03;;;;;;;;;;5038819;28;20464;-93
2021/07/30 11:46:52;;;;;;;5.90;5.40;;;;;;;;;;5033923;28;20506;-94
2021/07/30 11:49:27;;;;;;;6.57;5.60;;;27.20;99.90;;;;;;5035037;28;20451;-94
2021/07/30 11:51:54;;;;;;;6.63;4.63;;;;;;;;;;5036164;28;20458;-92
2021/07/30 11:54:25;;;;;;;6.10;5.33;;;28.30;98.40;;;;;;5034607;28;20455;-92
2021/07/30 11:56:52;;;;;;;7.50;4.70;;;;;;;;;;5034751;28;20451;-92
2021/07/30 11:59:20;;;;;;;6.33;5.73;;;;;;;;;;5034289;28;20443;-91
2021/07/30 12:02:05;;;;;;;5.93;5.40;;;29.20;96.30;;;;;;5034247;28;20456;-91
2021/07/30 12:04:33;;;;;;;6.00;5.50;;;29.50;96.30;;;;;;5034701;28;20454;-91
2021/07/30 12:07:06;;;;;;;6.97;5.87;;;29.50;95.70;;;;;;5034277;28;20494;-93
2021/07/30 12:09:35;;;;;;;5.73;5.23;;;28.50;95.80;;;;;;5039285;28;20470;-92
2021/07/30 12:12:04;;;;;;;7.93;6.00;;;28.00;97.20;;;;;;5037567;28;20453;-91
2021/07/30 12:14:33;;;;;;;6.63;6.03;;;26.60;97.20;;;;;;5036646;28;20809;-91
2021/07/30 12:17:01;;;;;;;8.07;6.53;;;;;;;;;;5035805;28;20446;-91
2021/07/30 12:19:31;;;;;;;4.43;4.03;;;25.80;99.90;;;;;;5050840;28;20452;-86
2021/07/30 12:21:59;;;;;;;6.90;6.30;;;25.60;99.90;;;;;;5055733;28;20453;-91
2021/07/30 12:24:27;;;;;;;6.97;6.33;;;;;;;;;;5053068;28;20984;-89
2021/07/30 12:26:54;;;;;;;6.13;5.63;;;;;;;;;;5056385;28;20482;-89
2021/07/30 12:29:41;;;;;;;5.90;5.30;;;25.50;99.60;;;;;;5055644;28;20442;-87
2021/07/30 12:32:19;;;;;;;6.37;5.77;;;25.70;99.90;;;;;;5055744;28;20942;-88
2021/07/30 12:35:01;;;;;;;6.57;5.90;;;25.60;99.90;;;;;;5054451;28;20474;-88
2021/07/30 12:37:30;;;;;;;7.50;6.90;;;25.60;99.90;;;;;;5055453;28;20482;-89
2021/07/30 12:39:58;;;;;;;6.70;6.10;;;25.90;99.50;;;;;;5055993;28;20466;-85
2021/07/30 12:42:26;;;;;;;6.70;5.90;;;25.80;99.90;;;;;;5057338;28;20451;-93
2021/07/30 12:45:05;;;;;;;7.53;6.67;;;26.70;99.40;;;;;;5061001;28;20454;-92
2021/07/30 12:47:32;;;;;;;7.60;6.70;;;;;;;;;;5059639;28;20493;-93
2021/07/30 12:50:01;;;;;;;7.00;6.30;;;28.40;97.30;;;;;;5056468;28;20461;-93
2021/07/30 12:52:28;;;;;;;6.70;6.10;;;;;;;;;;5052692;28;20790;-90
2021/07/30 12:55:05;;;;;;;7.33;6.63;;;28.20;96.30;;;;;;5057053;28;20456;-91
2021/07/30 12:57:53;;;;;;;18.23;6.20;;;27.50;96.30;;;;;;5057004;28;20989;-85
2021/07/30 13:00:31;;;;;;;6.90;6.30;;;27.50;97.60;;;;;;5051579;28;20524;-91
2021/07/30 13:02:59;;;;;;;6.27;5.73;;;;;;;;;;5059495;28;20451;-88
2021/07/30 13:05:31;;;;;;;8.33;6.17;;;27.50;97.00;;;;;;5057022;28;20520;-88
2021/07/30 13:07:59;;;;;;;7.47;6.83;;;27.90;96.40;;;;;;5057555;28;20501;-94
2021/07/30 13:10:27;;;;;;;7.37;6.40;;;;;;;;;;5055885;28;20488;-92
2021/07/30 13:12:54;;;;;;;6.50;6.00;;;;;;;;;;5057028;28;20435;-91
2021/07/30 13:15:22;;;;;;;7.00;6.40;;;;;;;;;;5059061;28;20451;-92
2021/07/30 13:17:49;;;;;;;10.43;7.50;;;;;;;;;;5059757;28;20508;-92
2021/07/30 13:20:17;;;;;;;8.03;6.33;;;;;;;;;;5058355;28;20453;-95
2021/07/30 13:22:45;;;;;;;7.50;6.50;;;28.30;96.20;;;;;;5061487;28;20482;-93
2021/07/30 13:25:12;;;;;;;7.13;6.43;;;;;;;;;;5059364;28;20454;-95
2021/07/30 13:27:39;;;;;;;7.23;6.53;;;;;;;;;;5057086;28;20497;-91
2021/07/30 13:30:07;;;;;;;6.50;5.90;;;27.70;96.60;;;;;;5057549;28;20451;-94
2021/07/30 13:32:34;;;;;;;7.43;6.73;;;;;;;;;;5054611;28;20856;-94
2021/07/30 13:35:01;;;;;;;7.27;6.67;;;;;;;;;;5061051;28;20520;-94
2021/07/30 13:37:29;;;;;;;7.73;6.83;;;;;;;;;;5055652;28;20498;-95
2021/07/30 13:39:57;;;;;;;7.67;7.03;;;28.30;97.00;;;;;;5060583;28;20449;-93
2021/07/30 13:42:24;;;;;;;20.47;12.53;;;;;;;;;;5051474;28;20817;-95
2021/07/30 13:44:54;;;;;;;8.17;7.43;;;28.30;95.70;;;;;;5056889;28;20435;-94
2021/07/30 13:47:21;;;;;;;6.40;5.80;;;;;;;;;;5057892;28;20988;-88
2021/07/30 13:49:48;;;;;;;7.70;7.00;;;;;;;;;;5057472;28;20807;-94
2021/07/30 13:52:16;;;;;;;7.67;6.87;;;27.50;97.90;;;;;;5057187;28;20427;-92
2021/07/30 13:54:51;;;;;;;8.57;7.77;;;;;;;;;;5055604;28;20972;-94
2021/07/30 13:57:29;;;;;;;8.10;7.40;;;;;;;;;;5068707;28;20434;-95
2021/07/30 13:59:56;;;;;;;7.10;6.03;;;;;;;;;;5084284;23;21026;-94
2021/07/30 14:02:23;;;;;;;8.00;7.30;;;;;;;;;;5124531;22;20494;-90
2021/07/30 14:04:54;;;;;;;7.83;7.10;;;;;;;;;;5061855;28;20514;-93
2021/07/30 14:10:10;;;;;;;8.40;7.60;;;;;;;;;;5093053;23;20482;-94
2021/07/30 14:18:18;;;;;;;7.20;6.60;;;;;;;;;;5039568;22;20511;-91
2021/07/30 14:41:03;;;;;;;7.20;6.50;;;;;;;;;;5465559;23;20491;-96
2021/07/30 14:43:54;;;;;;;8.70;7.90;;;;;;;;;;5417203;23;20483;-95